| Ora | Descriere | Temp | Se simte | Precipitatii | Umiditate | Vant |
|---|---|---|---|---|---|---|
| 00:00 | Senin | 12.5° | 10.9° | 0% | 69% | S 15.8 KM/H |
| 01:00 | Senin | 12.2° | 10.4° | 0% | 67% | S 17.3 KM/H |
| 02:00 | Senin | 11.7° | 9.8° | 0% | 66% | S 16.9 KM/H |
| 03:00 | 12.2° | 10.5° | 0% | 62% | S 16.6 KM/H | |
| 04:00 | Senin | 12° | 10.2° | 0% | 62% | S 16.9 KM/H |
| 05:00 | Senin | 10.6° | 8.7° | 0% | 65% | SSW 14.4 KM/H |
| 06:00 | Senin | 10.1° | 8.6° | 0% | 68% | S 10.4 KM/H |
| 07:00 | Senin | 11.7° | 10.6° | 0% | 65% | SSE 10.1 KM/H |
| 08:00 | Senin | 13° | 11.9° | 0% | 62% | S 12.6 KM/H |
| 09:00 | Senin | 15° | 15° | 0% | 58% | SSW 15.1 KM/H |
| 10:00 | Senin | 17.5° | 17.5° | 0% | 53% | S 17.3 KM/H |
| 11:00 | Senin | 19.5° | 19.6° | 0% | 49% | S 17.6 KM/H |
| 12:00 | Senin | 20.9° | 20.9° | 0% | 46% | S 17.3 KM/H |
| 13:00 | Senin | 22° | 22° | 0% | 43% | S 17.3 KM/H |
| 14:00 | Senin | 22.8° | 24.3° | 0% | 40% | S 16.9 KM/H |
| 15:00 | Senin | 23.3° | 24.4° | 0% | 38% | S 16.6 KM/H |
| 16:00 | 23.4° | 24.3° | 0% | 37% | S 16.9 KM/H | |
| 17:00 | 23.2° | 24.2° | 0% | 37% | SSE 19.8 KM/H | |
| 18:00 | 21.5° | 21.5° | 0% | 42% | SSE 25.9 KM/H | |
| 19:00 | Senin | 18.9° | 18.9° | 0% | 51% | SE 25.6 KM/H |
| 20:00 | Senin | 16.3° | 16.3° | 0% | 57% | SSE 25.6 KM/H |
| 21:00 | Senin | 14.5° | 12.9° | 0% | 60% | SSE 21.2 KM/H |
| 22:00 | Senin | 13.1° | 11.6° | 0% | 63% | SSE 16.6 KM/H |
| 23:00 | Senin | 12.1° | 10.6° | 0% | 64% | SSE 14 KM/H |